Terminal Aerodrome Forecast
Issued by NWS Pueblo, CO

Home | Current Version | Previous Version | Text Only | Print | Product List | Glossary On
Versions: 1 2 3 4 5 6 7 8 9 10 11 12 13 14 15 16 17 18 19 20 21 22 23 24 25 26 27 28 29 30 31 32 33 34
000
FTUS45 KPUB 211137
TAFALS
TAF
KALS 211137Z 2112/2212 VRB06KT P6SM BKN150
     FM211600 23012KT P6SM FEW100 SCT200
     FM211800 25015G25KT P6SM VCTS SCT080CB BKN140
      TEMPO 2120/2124 VRB20G40KT BKN080CB
     FM220100 27008KT P6SM BKN150
     FM220400 14006KT P6SM SCT150=

USA.gov is the U.S. government's official web portal to all federal, state and local government web resources and services.